Time;durP1;ratioP1;P1;durP2;ratioP2;P2;SDS_P1;SDS_P2;PMS_P1;PMS_P2;Temp;Humidity;BMP_temperature;BMP_pressure;BME280_temperature;BME280_humidity;BME280_pressure;Samples;Min_cycle;Max_cycle;Signal;HPM_P1;HPM_P2
2022/03/30 00:00:18;;;;;;;6.00;5.10;;;;;;;12.34;58.81;97767.44;4951284;29;20259;-64
2022/03/30 00:02:44;;;;;;;7.95;6.05;;;;;;;12.27;59.17;97767.16;4941813;28;20596;-64
2022/03/30 00:05:10;;;;;;;9.20;6.43;;;;;;;12.22;59.72;97764.13;4940355;29;20598;-65
2022/03/30 00:07:35;;;;;;;13.63;5.70;;;;;;;12.10;60.44;97751.38;4944493;29;20208;-66
2022/03/30 00:10:02;;;;;;;12.48;5.55;;;;;;;12.07;60.60;97756.84;4950848;29;20192;-65
2022/03/30 00:12:28;;;;;;;11.13;5.60;;;;;;;12.04;61.29;97754.47;4950492;29;20193;-65
2022/03/30 00:14:54;;;;;;;7.38;5.95;;;;;;;11.97;61.00;97753.38;4950630;29;20284;-65
2022/03/30 00:17:20;;;;;;;8.35;5.43;;;;;;;11.96;60.67;97768.09;4950880;29;20185;-65
2022/03/30 00:19:45;;;;;;;9.43;5.82;;;;;;;11.93;61.28;97755.41;4950840;29;20181;-65
2022/03/30 00:22:11;;;;;;;11.73;5.82;;;;;;;11.92;61.70;97752.94;4949757;29;20660;-65
2022/03/30 00:24:38;;;;;;;13.13;6.10;;;;;;;11.88;61.52;97744.59;4938723;29;20193;-65
2022/03/30 00:27:06;;;;;;;9.35;5.15;;;;;;;11.96;60.41;97743.94;4940800;29;20553;-65
2022/03/30 00:29:32;;;;;;;6.80;5.10;;;;;;;11.96;60.32;97746.53;4947593;29;20665;-65
2022/03/30 00:31:58;;;;;;;12.65;6.10;;;;;;;11.95;60.25;97756.09;4950221;29;20260;-65
2022/03/30 00:34:23;;;;;;;11.30;6.38;;;;;;;11.95;60.36;97750.06;4950678;29;20196;-65
2022/03/30 00:36:48;;;;;;;10.77;6.38;;;;;;;11.91;60.67;97753.88;4950349;29;20267;-64
2022/03/30 00:39:16;;;;;;;8.52;6.43;;;;;;;11.90;59.93;97752.25;4950268;29;20666;-65
2022/03/30 00:41:42;;;;;;;9.20;5.70;;;;;;;11.92;59.73;97745.97;4949934;29;20257;-65
2022/03/30 00:44:12;;;;;;;10.73;6.05;;;;;;;11.90;59.39;97734.09;4944396;29;20601;-64
2022/03/30 00:46:38;;;;;;;7.35;5.85;;;;;;;11.88;59.65;97735.97;4939287;29;20235;-64
2022/03/30 00:49:04;;;;;;;10.98;5.32;;;;;;;11.83;59.77;97735.53;4941654;29;20279;-65
2022/03/30 00:51:31;;;;;;;7.18;5.28;;;;;;;11.76;60.24;97744.78;4949862;29;20801;-65
2022/03/30 00:53:57;;;;;;;7.03;5.80;;;;;;;11.68;60.53;97742.03;4949258;28;20204;-64
2022/03/30 00:56:25;;;;;;;7.63;5.18;;;;;;;11.69;60.36;97741.91;4949935;29;20177;-64
2022/03/30 00:58:50;;;;;;;7.72;5.72;;;;;;;11.68;60.80;97742.03;4949834;29;20207;-64
2022/03/30 01:01:16;;;;;;;11.68;6.00;;;;;;;11.67;60.51;97732.63;4949872;29;20731;-65
2022/03/30 01:03:42;;;;;;;16.92;6.20;;;;;;;11.67;60.59;97740.38;4949031;28;20292;-65
2022/03/30 01:06:07;;;;;;;13.25;7.18;;;;;;;11.64;60.51;97730.25;4939570;29;20217;-65
2022/03/30 01:08:33;;;;;;;7.80;5.75;;;;;;;11.72;60.26;97733.88;4939405;29;20265;-65
2022/03/30 01:11:00;;;;;;;12.15;6.18;;;;;;;11.84;59.78;97724.25;4944543;29;20193;-65
2022/03/30 01:13:26;;;;;;;8.25;5.15;;;;;;;11.86;59.72;97719.75;4949523;29;20283;-66
2022/03/30 01:15:52;;;;;;;9.48;6.47;;;;;;;11.87;59.40;97721.38;4950022;29;20603;-65
2022/03/30 01:18:18;;;;;;;13.23;6.15;;;;;;;11.83;59.80;97725.19;4949463;29;20192;-65
2022/03/30 01:20:50;;;;;;;8.35;6.05;;;;;;;11.80;59.21;97721.06;4949104;29;20203;-65
2022/03/30 01:23:16;;;;;;;6.88;5.50;;;;;;;11.93;58.88;97726.88;4949338;29;20200;-65
2022/03/30 01:25:42;;;;;;;10.63;6.45;;;;;;;12.03;57.77;97725.13;4946086;29;20296;-65
2022/03/30 01:28:08;;;;;;;9.27;6.28;;;;;;;12.12;57.91;97733.91;4938315;29;20450;-65
2022/03/30 01:33:17;;;;;;;10.98;6.40;;;;;;;12.06;58.04;97731.81;4948766;29;20251;-65
2022/03/30 01:35:43;;;;;;;10.20;6.40;;;;;;;12.11;57.95;97734.84;4949180;29;20201;-65
2022/03/30 01:38:09;;;;;;;10.75;7.05;;;;;;;12.15;57.75;97720.69;4949140;29;20579;-65
2022/03/30 01:40:36;;;;;;;11.57;6.75;;;;;;;12.14;57.51;97735.41;4949146;29;20196;-65
2022/03/30 01:43:01;;;;;;;11.35;6.20;;;;;;;12.13;57.58;97722.59;4948918;29;20189;-65
2022/03/30 01:45:27;;;;;;;9.50;6.20;;;;;;;12.12;57.56;97731.31;4948909;29;20197;-66
2022/03/30 01:47:57;;;;;;;12.13;6.45;;;;;;;12.06;57.65;97729.22;4940121;29;20197;-65
2022/03/30 01:50:23;;;;;;;11.02;6.30;;;;;;;12.04;57.39;97738.94;4938957;29;20197;-65
2022/03/30 01:52:49;;;;;;;15.45;6.30;;;;;;;11.90;58.26;97731.50;4943028;29;20181;-65
2022/03/30 01:55:16;;;;;;;9.10;5.78;;;;;;;11.79;59.26;97729.78;4948842;29;20263;-65
2022/03/30 01:57:41;;;;;;;15.65;6.22;;;;;;;11.59;59.93;97737.59;4948789;29;20200;-65
2022/03/30 02:00:10;;;;;;;16.13;6.60;;;;;;;11.54;59.89;97739.72;4949055;29;20192;-65
2022/03/30 02:02:36;;;;;;;12.95;7.10;;;;;;;11.49;59.93;97745.28;4948605;28;20733;-64
2022/03/30 02:05:02;;;;;;;12.10;6.82;;;;;;;11.51;59.78;97734.81;4948474;28;20181;-65
2022/03/30 02:07:28;;;;;;;8.23;6.15;;;;;;;11.48;59.79;97741.06;4947443;29;20213;-65
2022/03/30 02:09:53;;;;;;;7.88;6.72;;;;;;;11.50;59.68;97733.16;4936978;29;20515;-65
2022/03/30 02:12:19;;;;;;;8.57;6.35;;;;;;;11.47;59.38;97738.59;4939322;29;20275;-65
2022/03/30 02:14:46;;;;;;;7.82;7.07;;;;;;;11.46;59.85;97742.13;4945901;29;20540;-65
2022/03/30 02:17:11;;;;;;;10.10;6.93;;;;;;;11.44;59.87;97738.84;4948589;29;20181;-65
2022/03/30 02:19:37;;;;;;;15.43;7.03;;;;;;;11.46;60.03;97742.13;4948472;29;20193;-65
2022/03/30 02:22:02;;;;;;;10.88;6.78;;;;;;;11.51;59.70;97745.16;4948514;29;20193;-65
2022/03/30 02:24:28;;;;;;;10.45;7.13;;;;;;;11.59;58.80;97750.56;4948544;29;20201;-65
2022/03/30 02:26:53;;;;;;;11.60;6.90;;;;;;;11.60;58.52;97754.78;4948462;29;20237;-65
2022/03/30 02:29:19;;;;;;;8.48;6.90;;;;;;;11.59;58.81;97753.13;4942676;29;20196;-64
2022/03/30 02:31:45;;;;;;;13.10;7.53;;;;;;;11.58;58.69;97751.47;4937992;29;20642;-65
2022/03/30 02:34:11;;;;;;;8.45;6.55;;;;;;;11.54;58.93;97750.91;4940212;29;20193;-64
2022/03/30 02:36:37;;;;;;;8.55;7.25;;;;;;;11.53;59.30;97749.28;4948330;29;20208;-64
2022/03/30 02:39:04;;;;;;;9.60;6.97;;;;;;;11.51;59.25;97745.16;4948720;29;20897;-64
2022/03/30 02:41:29;;;;;;;11.25;6.35;;;;;;;11.47;59.33;97756.72;4948533;29;20204;-66
2022/03/30 02:43:55;;;;;;;9.18;7.38;;;;;;;11.42;58.70;97758.84;4948372;29;20197;-64
2022/03/30 02:46:21;;;;;;;9.27;7.05;;;;;;;11.35;59.28;97744.78;4948275;29;20247;-64
2022/03/30 02:48:46;;;;;;;10.07;6.68;;;;;;;11.43;59.54;97755.34;4948876;29;20578;-65
2022/03/30 02:51:12;;;;;;;11.45;7.05;;;;;;;11.45;58.52;97750.84;4939417;29;20294;-65
2022/03/30 02:53:38;;;;;;;12.13;7.72;;;;;;;11.43;58.72;97753.56;4920871;29;20251;-65
2022/03/30 02:56:04;;;;;;;8.88;7.07;;;;;;;11.23;58.76;97732.84;4942568;29;20197;-66
2022/03/30 02:58:30;;;;;;;11.00;6.82;;;;;;;11.27;59.48;97752.38;4948483;29;20189;-64
2022/03/30 03:00:56;;;;;;;10.40;7.38;;;;;;;11.16;60.22;97744.66;4948293;29;20597;-64
2022/03/30 03:03:23;;;;;;;8.23;7.38;;;;;;;11.05;60.56;97735.16;4948244;28;20244;-65
2022/03/30 03:05:48;;;;;;;13.75;7.65;;;;;;;11.02;60.92;97737.16;4948115;29;20247;-65
2022/03/30 03:08:14;;;;;;;10.38;7.22;;;;;;;10.97;60.82;97723.78;4948075;29;20239;-65
2022/03/30 03:10:42;;;;;;;11.38;7.45;;;;;;;11.00;60.66;97737.31;4947316;29;20197;-64
2022/03/30 03:13:08;;;;;;;10.45;6.80;;;;;;;10.99;61.18;97740.00;4936422;29;20679;-64
2022/03/30 03:15:35;;;;;;;11.43;7.15;;;;;;;11.02;61.08;97737.16;4938780;29;20203;-64
2022/03/30 03:18:01;;;;;;;7.55;6.70;;;;;;;11.06;60.92;97741.16;4947259;28;20191;-64
2022/03/30 03:20:28;;;;;;;10.80;7.00;;;;;;;11.09;61.26;97730.56;4951508;29;20260;-64
2022/03/30 03:22:54;;;;;;;11.30;7.10;;;;;;;11.15;60.92;97732.66;4951560;29;20196;-64
2022/03/30 03:25:20;;;;;;;11.98;7.65;;;;;;;11.17;59.97;97738.50;4951551;29;20192;-64
2022/03/30 03:27:46;;;;;;;15.57;7.82;;;;;;;11.12;59.89;97731.13;4951737;29;20203;-65
2022/03/30 03:30:13;;;;;;;10.80;7.05;;;;;;;11.10;60.13;97721.84;4951441;29;20682;-65
2022/03/30 03:32:38;;;;;;;11.35;7.95;;;;;;;11.11;59.64;97733.84;4945772;29;20227;-64
2022/03/30 03:35:04;;;;;;;11.80;8.52;;;;;;;11.15;59.11;97722.28;4940720;29;20777;-65
2022/03/30 03:37:30;;;;;;;12.18;7.68;;;;;;;11.19;59.40;97718.47;4943075;29;20220;-65
2022/03/30 03:39:55;;;;;;;11.43;8.00;;;;;;;11.21;58.83;97735.53;4951476;29;20193;-64
2022/03/30 03:42:21;;;;;;;11.27;7.68;;;;;;;11.17;59.44;97730.75;4951184;29;20667;-65
2022/03/30 03:44:47;;;;;;;12.15;7.55;;;;;;;11.18;59.06;97740.16;4951205;29;20272;-65
2022/03/30 03:47:12;;;;;;;11.23;8.85;;;;;;;11.15;59.28;97748.19;4951013;29;20213;-65
2022/03/30 03:49:39;;;;;;;13.90;8.57;;;;;;;11.25;58.25;97759.41;4951253;29;20639;-65
2022/03/30 03:52:06;;;;;;;13.02;8.10;;;;;;;11.31;57.65;97761.50;4951025;29;20185;-65
2022/03/30 03:54:32;;;;;;;13.82;8.50;;;;;;;11.45;56.61;97766.41;4941020;29;20762;-65
2022/03/30 03:56:57;;;;;;;13.10;8.18;;;;;;;11.51;56.83;97766.72;4940419;29;20264;-65
2022/03/30 03:59:23;;;;;;;14.13;8.68;;;;;;;11.58;56.98;97767.88;4945630;29;20189;-65
2022/03/30 04:01:49;;;;;;;14.45;8.77;;;;;;;11.53;56.83;97771.75;4950817;29;20181;-65
2022/03/30 04:04:15;;;;;;;10.95;8.30;;;;;;;11.50;57.36;97775.41;4950622;28;20314;-65
2022/03/30 04:06:41;;;;;;;13.35;8.50;;;;;;;11.46;57.74;97774.03;4950738;29;20287;-65
2022/03/30 04:09:06;;;;;;;10.93;8.00;;;;;;;11.44;58.06;97769.94;4950726;29;20635;-65
2022/03/30 04:11:31;;;;;;;10.00;7.90;;;;;;;11.40;57.97;97765.94;4950673;29;20195;-65
2022/03/30 04:13:57;;;;;;;12.90;9.13;;;;;;;11.46;57.59;97768.88;4949368;29;20193;-65
2022/03/30 04:16:22;;;;;;;12.85;8.32;;;;;;;11.39;57.60;97766.91;4938905;29;20192;-65
2022/03/30 04:18:48;;;;;;;13.73;8.05;;;;;;;11.23;58.41;97767.34;4941240;29;20188;-65
2022/03/30 04:21:14;;;;;;;13.73;7.88;;;;;;;11.24;58.20;97763.78;4948054;29;20208;-65
2022/03/30 04:23:39;;;;;;;13.20;8.60;;;;;;;11.05;59.39;97755.88;4950621;29;21043;-65
2022/03/30 04:26:04;;;;;;;17.23;8.30;;;;;;;10.97;59.96;97762.63;4950325;29;20604;-65
2022/03/30 04:28:30;;;;;;;14.63;8.52;;;;;;;10.84;61.04;97765.34;4949766;28;20189;-65
2022/03/30 04:30:56;;;;;;;12.75;8.75;;;;;;;10.87;60.82;97756.53;4950185;29;20259;-65
2022/03/30 04:33:22;;;;;;;10.32;7.57;;;;;;;10.86;61.11;97752.28;4950390;29;20192;-65
2022/03/30 04:35:47;;;;;;;14.57;7.90;;;;;;;10.77;61.57;97758.19;4944434;29;20196;-65
2022/03/30 04:38:14;;;;;;;15.85;7.75;;;;;;;10.54;62.65;97760.03;4939384;29;20185;-65
2022/03/30 04:40:40;;;;;;;8.82;7.93;;;;;;;10.53;62.76;97754.97;4941659;29;20868;-65
2022/03/30 04:43:06;;;;;;;13.23;8.18;;;;;;;10.60;62.58;97750.94;4950121;29;20215;-65
2022/03/30 04:45:31;;;;;;;13.65;8.65;;;;;;;10.65;62.32;97749.66;4949782;29;20268;-66
2022/03/30 04:47:57;;;;;;;12.15;8.18;;;;;;;10.72;61.73;97755.16;4949736;29;20937;-65
2022/03/30 04:50:23;;;;;;;10.00;8.30;;;;;;;10.81;61.41;97754.44;4950192;29;20220;-64
2022/03/30 04:52:49;;;;;;;11.25;7.75;;;;;;;10.76;61.72;97759.13;4949893;29;20730;-65
2022/03/30 04:55:14;;;;;;;11.48;7.65;;;;;;;10.73;62.00;97759.41;4949891;29;20645;-65
2022/03/30 04:57:40;;;;;;;14.43;8.05;;;;;;;10.65;61.88;97759.16;4940035;29;20334;-66
2022/03/30 05:00:09;;;;;;;12.93;9.07;;;;;;;10.81;61.38;97762.19;4939730;29;20513;-66
2022/03/30 05:02:36;;;;;;;10.85;8.55;;;;;;;10.86;61.24;97758.28;4944582;28;20195;-64
2022/03/30 05:05:02;;;;;;;10.95;7.85;;;;;;;10.89;61.23;97768.41;4933128;29;20721;-65
2022/03/30 05:07:28;;;;;;;13.90;8.43;;;;;;;10.90;60.99;97780.38;4949518;29;20312;-65
2022/03/30 05:09:54;;;;;;;11.35;7.50;;;;;;;11.00;60.71;97776.13;4949569;29;20207;-65
2022/03/30 05:12:19;;;;;;;15.23;7.85;;;;;;;11.04;60.89;97769.75;4949604;29;20211;-64
2022/03/30 05:14:45;;;;;;;14.52;8.43;;;;;;;11.05;60.47;97778.34;4949543;29;20187;-64
2022/03/30 05:17:10;;;;;;;11.85;7.70;;;;;;;11.09;60.65;97779.75;4947154;29;20181;-64
2022/03/30 05:19:37;;;;;;;11.73;8.65;;;;;;;11.10;60.68;97765.84;4938639;29;20280;-66
2022/03/30 05:22:05;;;;;;;11.73;8.27;;;;;;;11.12;60.23;97763.94;4940162;29;20919;-65
2022/03/30 05:24:30;;;;;;;13.38;7.75;;;;;;;11.23;60.43;97776.84;4947560;29;20612;-64
2022/03/30 05:26:56;;;;;;;10.82;7.55;;;;;;;11.24;60.18;97778.50;4949323;29;20244;-64
2022/03/30 05:29:21;;;;;;;11.05;8.23;;;;;;;11.22;60.56;97770.88;4949554;29;20193;-65
2022/03/30 05:31:47;;;;;;;12.32;8.20;;;;;;;11.33;59.91;97767.41;4949346;29;20185;-65
2022/03/30 05:34:12;;;;;;;16.20;8.20;;;;;;;11.45;59.43;97766.41;4927848;29;20189;-64
2022/03/30 05:36:38;;;;;;;9.93;7.60;;;;;;;11.55;59.56;97767.28;4949112;29;20272;-64
2022/03/30 05:39:03;;;;;;;11.68;7.85;;;;;;;11.64;59.13;97766.53;4942264;29;20201;-65
2022/03/30 05:41:30;;;;;;;12.52;8.05;;;;;;;11.72;58.21;97769.34;4938675;28;20675;-65
2022/03/30 05:43:56;;;;;;;12.90;7.13;;;;;;;11.77;58.77;97770.59;4941400;29;20694;-64
2022/03/30 05:46:21;;;;;;;9.43;7.88;;;;;;;11.83;58.39;97762.28;4949162;29;20213;-65
2022/03/30 05:48:48;;;;;;;12.73;7.20;;;;;;;11.91;58.19;97774.63;4948762;29;20196;-64
2022/03/30 05:51:13;;;;;;;11.05;7.82;;;;;;;12.02;57.98;97767.56;4948971;29;20243;-64
2022/03/30 05:53:39;;;;;;;9.77;7.82;;;;;;;12.18;56.77;97765.31;4948938;29;20193;-64
2022/03/30 05:56:05;;;;;;;14.75;8.15;;;;;;;12.37;55.83;97767.97;4948932;29;20191;-64
2022/03/30 05:58:30;;;;;;;13.20;8.10;;;;;;;12.51;55.93;97766.81;4949100;29;20185;-64
2022/03/30 06:00:56;;;;;;;13.50;8.27;;;;;;;12.59;55.79;97767.78;4938177;29;20239;-65
2022/03/30 06:03:22;;;;;;;12.90;7.57;;;;;;;12.66;55.62;97770.69;4938518;28;20304;-65
2022/03/30 06:05:48;;;;;;;12.88;7.43;;;;;;;12.75;55.38;97769.84;4944048;29;20209;-65
2022/03/30 06:08:13;;;;;;;10.88;8.18;;;;;;;12.80;55.23;97775.47;4948592;29;20185;-64
2022/03/30 06:10:39;;;;;;;12.20;7.28;;;;;;;12.77;55.17;97760.19;4948834;29;20188;-65
2022/03/30 06:13:05;;;;;;;11.95;7.18;;;;;;;12.86;54.93;97780.13;4937208;29;20196;-65
2022/03/30 06:15:31;;;;;;;11.45;7.55;;;;;;;12.94;54.85;97769.88;4948910;29;20284;-66
2022/03/30 06:17:57;;;;;;;13.23;7.28;;;;;;;13.03;54.74;97766.53;4948621;29;20216;-65
2022/03/30 06:20:24;;;;;;;12.43;7.55;;;;;;;13.08;54.98;97764.34;4945559;29;20197;-65
2022/03/30 06:22:54;;;;;;;12.77;7.82;;;;;;;13.17;54.54;97763.50;4937680;29;20199;-66
2022/03/30 06:25:24;;;;;;;12.88;8.07;;;;;;;13.27;54.95;97774.72;4939271;29;20189;-65
2022/03/30 06:27:50;;;;;;;22.27;13.88;;;;;;;13.38;56.55;97772.00;4930208;29;20602;-65
2022/03/30 06:30:17;;;;;;;31.20;14.38;;;;;;;13.45;57.00;97778.28;4948548;29;20189;-65
2022/03/30 06:32:43;;;;;;;21.55;13.15;;;;;;;13.52;56.57;97766.34;4948581;29;20199;-65
2022/03/30 06:35:08;;;;;;;16.33;12.18;;;;;;;13.69;55.53;97787.28;4948360;29;20189;-65
2022/03/30 06:37:34;;;;;;;14.45;11.30;;;;;;;13.81;55.18;97782.72;4948525;29;20185;-65
2022/03/30 06:40:00;;;;;;;23.73;11.88;;;;;;;13.90;54.61;97789.69;4948596;29;20204;-65
2022/03/30 06:42:25;;;;;;;19.88;12.10;;;;;;;13.93;54.77;97790.25;4940113;29;20211;-65
2022/03/30 06:44:50;;;;;;;17.23;11.15;;;;;;;13.99;54.40;97789.69;4938330;29;20660;-65
2022/03/30 06:47:16;;;;;;;18.60;10.77;;;;;;;14.07;53.55;97792.41;4941805;29;20209;-65
2022/03/30 06:49:42;;;;;;;16.77;11.30;;;;;;;14.08;52.93;97790.59;4948303;29;20654;-65
2022/03/30 06:52:09;;;;;;;25.55;16.67;;;;;;;14.18;52.40;97789.59;4949165;28;20199;-65
2022/03/30 06:54:36;;;;;;;33.67;18.30;;;;;;;14.33;51.73;97792.59;4951951;29;20202;-65
2022/03/30 06:57:02;;;;;;;20.17;13.18;;;;;;;14.43;51.57;97793.38;4952385;29;20204;-65
2022/03/30 06:59:28;;;;;;;9.63;8.20;;;;;;;14.61;49.89;97802.06;4952141;29;20193;-65
2022/03/30 07:01:55;;;;;;;12.63;8.25;;;;;;;14.70;49.67;97801.22;4951452;29;20208;-65
2022/03/30 07:04:21;;;;;;;10.60;7.47;;;;;;;14.83;49.24;97809.50;4940453;28;20737;-65
2022/03/30 07:12:15;;;;;;;20.13;12.35;;;;;;;15.18;49.39;97822.56;4952093;29;20223;-65
2022/03/30 07:14:41;;;;;;;16.42;9.00;;;;;;;15.19;48.28;97813.78;4951777;29;20271;-65
2022/03/30 07:17:07;;;;;;;13.00;8.07;;;;;;;15.27;47.49;97816.50;4951586;29;20685;-65
2022/03/30 07:19:32;;;;;;;10.00;8.35;;;;;;;15.38;46.87;97809.28;4952002;29;20197;-65
2022/03/30 07:21:58;;;;;;;11.63;7.43;;;;;;;15.48;47.04;97809.19;4951451;29;20662;-66
2022/03/30 07:24:23;;;;;;;11.70;7.55;;;;;;;15.58;46.20;97809.94;4943549;29;20237;-65
2022/03/30 07:26:49;;;;;;;11.60;8.15;;;;;;;15.73;46.31;97813.63;4941189;29;20265;-65
2022/03/30 07:29:14;;;;;;;13.25;7.95;;;;;;;15.92;46.18;97819.50;4944771;29;20287;-66
2022/03/30 07:31:40;;;;;;;14.18;8.02;;;;;;;16.08;45.07;97813.56;4924314;29;20211;-65
2022/03/30 07:34:05;;;;;;;12.40;8.20;;;;;;;16.09;45.33;97823.06;4951415;29;20200;-66
2022/03/30 07:36:31;;;;;;;13.73;8.77;;;;;;;16.25;46.45;97815.31;4951441;29;20192;-66
2022/03/30 07:38:56;;;;;;;14.00;8.48;;;;;;;16.44;49.39;97812.53;4951191;29;20185;-64
2022/03/30 07:41:22;;;;;;;13.77;8.77;;;;;;;16.50;49.95;97809.28;4951476;29;20272;-66
2022/03/30 07:43:48;;;;;;;18.40;10.00;;;;;;;16.60;50.11;97809.97;4951201;29;20199;-66
2022/03/30 07:46:14;;;;;;;27.08;9.48;;;;;;;16.72;50.09;97819.16;4939742;29;20684;-66
2022/03/30 07:48:40;;;;;;;21.13;10.07;;;;;;;16.81;50.13;97826.06;4941371;29;20284;-66
2022/03/30 07:51:06;;;;;;;15.77;8.95;;;;;;;16.85;50.49;97828.19;4947158;29;20185;-66
2022/03/30 07:53:32;;;;;;;15.95;8.85;;;;;;;16.86;51.35;97836.88;4951140;29;20189;-66
2022/03/30 07:55:58;;;;;;;14.75;7.93;;;;;;;16.91;51.26;97830.19;4951217;29;20188;-65
2022/03/30 07:58:25;;;;;;;19.35;9.88;;;;;;;16.90;51.40;97825.13;4950802;29;20199;-65
2022/03/30 08:00:51;;;;;;;15.00;8.73;;;;;;;16.92;51.98;97825.78;4950941;29;20188;-66
2022/03/30 08:03:17;;;;;;;17.63;8.77;;;;;;;16.98;52.14;97825.16;4950683;28;20224;-66
2022/03/30 08:05:43;;;;;;;17.63;8.55;;;;;;;16.98;52.09;97825.16;4946885;29;20329;-65
2022/03/30 08:08:08;;;;;;;11.00;8.18;;;;;;;16.93;52.79;97827.41;4939866;29;20612;-65
2022/03/30 08:10:35;;;;;;;53.42;30.20;;;;;;;17.08;52.21;97823.22;4941778;29;20594;-67
2022/03/30 08:13:02;;;;;;;16.20;10.68;;;;;;;17.18;52.32;97816.03;4949583;29;20809;-65
2022/03/30 08:15:28;;;;;;;16.77;9.15;;;;;;;17.25;51.89;97817.84;4950582;29;20207;-65
2022/03/30 08:17:54;;;;;;;25.17;9.50;;;;;;;17.36;51.58;97822.78;4950647;29;20225;-65
2022/03/30 08:23:06;;;;;;;14.75;7.57;;;;;;;17.06;52.22;97812.09;4950693;29;20259;-65
2022/03/30 08:25:32;;;;;;;10.45;7.72;;;;;;;17.20;52.06;97806.25;4950265;29;20721;-67
2022/03/30 08:27:59;;;;;;;15.77;8.02;;;;;;;17.32;51.49;97797.13;4940798;29;20623;-65
2022/03/30 08:30:24;;;;;;;13.45;8.05;;;;;;;17.45;51.37;97787.84;4940241;29;20185;-65
2022/03/30 08:32:50;;;;;;;19.30;8.23;;;;;;;17.60;50.95;97795.88;4945559;29;20191;-65
2022/03/30 08:35:16;;;;;;;16.17;7.70;;;;;;;17.78;50.27;97796.53;4950187;29;20185;-65
2022/03/30 08:37:41;;;;;;;11.52;7.85;;;;;;;17.74;50.24;97782.13;4950428;29;20266;-65
2022/03/30 08:40:07;;;;;;;13.43;8.82;;;;;;;17.58;50.24;97782.13;4950335;29;20709;-65
2022/03/30 08:42:34;;;;;;;15.18;7.72;;;;;;;17.72;50.01;97784.91;4950479;29;20191;-65
2022/03/30 08:45:04;;;;;;;12.00;8.25;;;;;;;17.58;50.32;97784.75;4950632;29;20184;-66
2022/03/30 08:47:31;;;;;;;18.23;7.85;;;;;;;17.72;50.26;97791.94;4947678;29;20609;-64
2022/03/30 08:49:57;;;;;;;14.10;7.88;;;;;;;17.91;49.16;97796.84;4938864;29;20180;-64
2022/03/30 08:52:23;;;;;;;15.55;8.77;;;;;;;18.01;48.93;97797.47;4940647;29;20180;-66
2022/03/30 08:54:50;;;;;;;15.75;7.75;;;;;;;17.98;48.67;97803.03;4948243;29;20299;-66
2022/03/30 08:57:16;;;;;;;19.05;8.80;;;;;;;18.08;48.56;97798.44;4950172;29;20176;-64
2022/03/30 09:00:05;;;;;;;13.57;8.65;;;;;;;18.10;48.52;97788.63;4949819;29;20230;-64
2022/03/30 09:02:46;;;;;;;12.30;8.30;;;;;;;18.15;48.77;97781.06;4949813;28;20192;-65
2022/03/30 09:05:14;;;;;;;10.85;7.88;;;;;;;18.21;47.79;97780.41;4950041;29;20263;-66
2022/03/30 09:07:42;;;;;;;15.60;8.65;;;;;;;18.28;47.33;97776.97;4949172;29;20765;-66
2022/03/30 09:10:19;;;;;;;12.10;8.13;;;;;;;18.27;47.33;97769.25;4939730;29;20184;-66
2022/03/30 09:12:46;;;;;;;9.68;8.23;;;;;;;18.38;47.36;97764.53;4939425;29;20192;-65
2022/03/30 09:15:12;;;;;;;14.27;8.55;;;;;;;18.52;46.76;97773.47;4945134;28;20246;-66
2022/03/30 09:17:39;;;;;;;15.98;8.73;;;;;;;18.72;46.03;97761.59;4949575;29;20184;-65
2022/03/30 09:20:11;;;;;;;17.23;8.15;;;;;;;18.76;45.92;97762.91;4949407;29;20706;-66
2022/03/30 09:22:41;;;;;;;13.55;8.40;;;;;;;18.75;45.77;97750.75;4949720;29;20208;-66
2022/03/30 09:25:08;;;;;;;12.55;8.40;;;;;;;18.85;45.42;97759.22;4949376;29;20197;-64
2022/03/30 09:27:39;;;;;;;11.38;7.90;;;;;;;18.95;45.10;97751.97;4949262;29;20216;-66
2022/03/30 09:30:07;;;;;;;16.42;8.80;;;;;;;18.93;44.58;97743.44;4944147;29;20192;-64
2022/03/30 09:32:32;;;;;;;20.20;9.23;;;;;;;18.93;44.84;97738.19;4938466;29;20712;-66
2022/03/30 09:34:58;;;;;;;17.67;9.77;;;;;;;19.02;44.25;97742.41;4940425;29;20184;-65
2022/03/30 09:37:23;;;;;;;16.65;9.13;;;;;;;18.98;44.03;97723.59;4948588;29;20196;-64
2022/03/30 09:39:50;;;;;;;11.55;8.05;;;;;;;19.18;43.73;97729.19;4949431;29;20223;-65
2022/03/30 09:42:16;;;;;;;14.18;7.85;;;;;;;19.28;43.79;97719.31;4949377;29;20275;-65
2022/03/30 09:44:52;;;;;;;17.50;9.63;;;;;;;19.43;43.37;97720.19;4949148;29;20280;-65
2022/03/30 09:47:19;;;;;;;12.10;9.05;;;;;;;19.54;42.80;97719.75;4948881;29;20275;-65
2022/03/30 09:49:47;;;;;;;17.85;8.88;;;;;;;19.65;42.78;97716.72;4948990;29;20191;-65
2022/03/30 09:52:24;;;;;;;12.95;8.93;;;;;;;19.64;42.33;97704.59;4938859;29;20216;-66
2022/03/30 09:54:57;;;;;;;15.25;8.73;;;;;;;19.70;42.33;97703.88;4938943;29;20949;-65
2022/03/30 09:57:37;;;;;;;14.93;8.43;;;;;;;19.55;42.12;97695.97;4945139;29;20270;-64
2022/03/30 10:00:15;;;;;;;15.82;8.85;;;;;;;19.51;41.84;97694.69;4949047;29;20180;-64
2022/03/30 10:02:52;;;;;;;15.18;8.70;;;;;;;19.66;41.62;97694.72;4948967;28;20188;-64
2022/03/30 10:05:20;;;;;;;14.85;8.68;;;;;;;19.73;41.27;97698.25;4948863;29;20191;-65
2022/03/30 10:07:46;;;;;;;14.05;9.57;;;;;;;19.87;41.75;97690.38;4931533;29;20631;-65
2022/03/30 10:10:14;;;;;;;14.30;8.60;;;;;;;20.03;41.46;97692.00;4948542;29;20242;-65
2022/03/30 10:12:39;;;;;;;17.30;8.40;;;;;;;20.20;41.37;97688.25;4941374;29;20517;-65
2022/03/30 10:15:08;;;;;;;14.13;8.95;;;;;;;20.30;41.16;97675.66;4938569;29;20618;-65
2022/03/30 10:17:34;;;;;;;15.55;8.77;;;;;;;20.31;40.39;97669.38;4941565;29;20243;-65
2022/03/30 10:20:01;;;;;;;16.80;8.50;;;;;;;20.34;39.71;97672.47;4948668;29;20192;-65
2022/03/30 10:22:53;;;;;;;14.35;9.02;;;;;;;20.19;39.81;97669.06;4931410;29;20191;-65
2022/03/30 10:25:38;;;;;;;12.35;8.32;;;;;;;20.12;39.80;97668.13;4948669;29;20250;-65
2022/03/30 10:28:16;;;;;;;15.13;9.02;;;;;;;20.21;39.91;97672.31;4950991;28;20180;-65
2022/03/30 10:30:43;;;;;;;12.10;8.20;;;;;;;20.26;39.73;97663.88;4952409;29;20740;-65
2022/03/30 10:33:10;;;;;;;15.10;8.63;;;;;;;20.36;39.34;97670.47;4948192;29;20188;-65
2022/03/30 10:35:46;;;;;;;11.80;8.63;;;;;;;20.41;38.61;97667.28;4941972;29;20686;-65
2022/03/30 10:38:12;;;;;;;14.88;9.13;;;;;;;20.67;38.60;97672.84;4943765;29;20619;-65
2022/03/30 10:40:39;;;;;;;12.38;8.73;;;;;;;20.84;37.13;97668.97;4952583;29;20194;-65
2022/03/30 10:43:10;;;;;;;14.00;8.65;;;;;;;21.10;36.31;97664.03;4952251;29;20191;-65
2022/03/30 10:45:56;;;;;;;15.68;9.20;;;;;;;21.42;36.14;97658.22;4952716;29;20173;-66
2022/03/30 10:48:30;;;;;;;15.65;8.82;;;;;;;21.54;35.67;97651.41;4952347;29;20282;-65
2022/03/30 10:51:06;;;;;;;16.65;9.60;;;;;;;21.67;35.10;97646.25;4952366;29;20271;-65
2022/03/30 10:53:34;;;;;;;16.15;9.02;;;;;;;21.66;35.47;97645.44;4951143;29;20187;-65
2022/03/30 10:56:08;;;;;;;20.20;8.30;;;;;;;21.67;35.25;97648.91;4940373;29;20563;-65
2022/03/30 10:58:59;;;;;;;12.20;8.68;;;;;;;21.62;35.77;97646.03;4943297;29;20808;-65
2022/03/30 11:01:27;;;;;;;10.90;9.75;;;;;;;21.76;35.61;97647.75;4950828;29;20188;-65
2022/03/30 11:04:05;;;;;;;15.32;8.63;;;;;;;21.80;35.69;97635.84;4951800;28;20315;-65
2022/03/30 11:06:44;;;;;;;15.57;8.27;;;;;;;21.86;35.14;97617.41;4951932;29;20211;-65
2022/03/30 11:09:23;;;;;;;15.48;9.30;;;;;;;22.12;34.16;97619.38;4951579;29;20188;-65
2022/03/30 11:11:57;;;;;;;11.75;8.82;;;;;;;22.26;34.91;97623.72;4952116;29;20188;-65
2022/03/30 11:14:39;;;;;;;12.55;8.23;;;;;;;22.40;34.00;97606.91;4951880;29;20189;-65
2022/03/30 11:17:09;;;;;;;16.15;8.80;;;;;;;22.43;33.89;97607.34;4940181;29;20228;-67
2022/03/30 11:19:47;;;;;;;14.30;8.80;;;;;;;22.60;33.56;97613.09;4942345;29;20716;-65
2022/03/30 11:22:21;;;;;;;13.35;9.38;;;;;;;22.74;33.85;97609.47;4950231;29;20299;-66
2022/03/30 11:25:04;;;;;;;13.30;9.32;;;;;;;22.57;33.07;97597.66;4951641;29;20179;-65
2022/03/30 11:27:30;;;;;;;55.25;22.45;;;;;;;22.82;32.50;97596.09;4951549;29;20208;-67
2022/03/30 11:29:58;;;;;;;36.70;17.23;;;;;;;22.99;32.29;97577.03;4951522;29;20193;-66
2022/03/30 11:32:23;;;;;;;11.30;9.25;;;;;;;23.06;32.32;97572.56;4951609;29;20211;-67
2022/03/30 11:34:52;;;;;;;11.80;8.95;;;;;;;23.04;31.54;97568.50;4951443;29;20650;-66
2022/03/30 11:37:44;;;;;;;18.90;9.75;;;;;;;22.92;32.02;97570.13;4941759;28;20434;-66